createdAt,value
2022-11-22T00:00:10.486Z,8.20
2022-11-22T00:02:58.673Z,8.20
2022-11-22T00:05:45.113Z,8.20
2022-11-22T00:08:33.320Z,8.10
2022-11-22T00:11:20.694Z,8.00
2022-11-22T00:14:07.627Z,8.00
2022-11-22T00:16:54.030Z,8.10
2022-11-22T00:19:42.202Z,8.20
2022-11-22T00:22:28.934Z,8.20
2022-11-22T00:25:15.922Z,8.30
2022-11-22T00:28:02.361Z,8.40
2022-11-22T00:30:49.274Z,8.40
2022-11-22T00:33:35.658Z,8.50
2022-11-22T00:36:23.570Z,8.60
2022-11-22T00:39:10.332Z,8.60
2022-11-22T00:41:56.770Z,8.70
2022-11-22T00:44:43.162Z,8.60
2022-11-22T00:47:29.608Z,8.60
2022-11-22T00:50:16.194Z,8.70
2022-11-22T00:53:03.935Z,8.70
2022-11-22T00:55:50.398Z,8.80
2022-11-22T00:58:36.856Z,8.90
2022-11-22T01:01:23.773Z,8.80
2022-11-22T01:04:10.726Z,8.70
2022-11-22T01:06:57.146Z,8.80
2022-11-22T01:09:45.344Z,8.70
2022-11-22T01:12:31.982Z,8.80
2022-11-22T01:15:18.882Z,8.80
2022-11-22T01:18:05.850Z,8.70
2022-11-22T01:20:52.439Z,8.70
2022-11-22T01:23:39.256Z,8.80
2022-11-22T01:26:27.266Z,8.80
2022-11-22T01:29:13.862Z,8.70
2022-11-22T01:32:00.374Z,8.70
2022-11-22T01:34:46.832Z,8.70
2022-11-22T01:37:33.419Z,8.60
2022-11-22T01:40:20.264Z,8.60
2022-11-22T01:43:17.123Z,8.60
2022-11-22T01:46:07.507Z,8.60
2022-11-22T01:48:57.625Z,8.70
2022-11-22T01:51:48.208Z,8.70
2022-11-22T01:54:40.110Z,8.70
2022-11-22T01:57:30.918Z,8.70
2022-11-22T02:00:19.734Z,8.70
2022-11-22T02:03:10.631Z,8.70
2022-11-22T02:05:57.974Z,8.70
2022-11-22T02:08:53.119Z,8.80
2022-11-22T02:11:44.190Z,8.70
2022-11-22T02:14:32.235Z,8.80
2022-11-22T02:17:20.067Z,8.70
2022-11-22T02:20:09.036Z,8.80
2022-11-22T02:23:02.381Z,8.70
2022-11-22T02:25:57.877Z,8.80
2022-11-22T02:28:44.798Z,8.70
2022-11-22T02:31:39.881Z,8.80
2022-11-22T02:34:26.408Z,8.80
2022-11-22T02:37:15.663Z,8.70
2022-11-22T02:40:07.078Z,8.70
2022-11-22T02:43:02.421Z,8.70
2022-11-22T02:45:49.041Z,8.70
2022-11-22T02:48:35.531Z,8.70
2022-11-22T02:51:21.841Z,8.70
2022-11-22T02:54:08.599Z,8.70
2022-11-22T02:56:54.971Z,8.70
2022-11-22T02:59:42.754Z,8.80
2022-11-22T03:02:29.432Z,8.80
2022-11-22T03:05:16.294Z,8.80
2022-11-22T03:08:02.836Z,8.80
2022-11-22T03:10:49.238Z,8.80
2022-11-22T03:13:35.696Z,8.70
2022-11-22T03:16:23.351Z,8.70
2022-11-22T03:19:09.879Z,8.70
2022-11-22T03:21:56.574Z,8.70
2022-11-22T03:24:43.046Z,8.70
2022-11-22T03:27:29.440Z,8.60
2022-11-22T03:30:16.613Z,8.60
2022-11-22T03:33:04.601Z,8.60
2022-11-22T03:35:51.104Z,8.60
2022-11-22T03:38:38.050Z,8.60
2022-11-22T03:41:24.606Z,8.60
2022-11-22T03:44:10.998Z,8.60
2022-11-22T03:46:57.639Z,8.60
2022-11-22T03:49:45.476Z,8.60
2022-11-22T03:52:31.894Z,8.60
2022-11-22T03:55:18.572Z,8.60
2022-11-22T03:58:05.321Z,8.60
2022-11-22T04:00:51.714Z,8.60
2022-11-22T04:03:38.045Z,8.50
2022-11-22T04:06:26.010Z,8.60
2022-11-22T04:09:12.657Z,8.60
2022-11-22T04:11:59.317Z,8.60
2022-11-22T04:15:03.031Z,8.50
2022-11-22T04:17:49.599Z,8.50
2022-11-22T04:20:53.391Z,8.50
2022-11-22T04:23:42.985Z,8.40
2022-11-22T04:26:31.615Z,8.40
2022-11-22T04:29:19.978Z,8.30
2022-11-22T04:32:24.062Z,8.30
2022-11-22T04:35:10.678Z,8.30
2022-11-22T04:37:57.355Z,8.40
2022-11-22T04:40:46.051Z,8.30
2022-11-22T04:43:49.861Z,8.30
2022-11-22T04:46:36.382Z,8.30
2022-11-22T04:49:23.118Z,8.30
2022-11-22T04:52:28.021Z,8.40
2022-11-22T04:55:14.761Z,8.30
2022-11-22T04:58:02.860Z,8.30
2022-11-22T05:00:50.482Z,8.30
2022-11-22T05:03:37.278Z,8.30
2022-11-22T05:06:23.812Z,8.20
2022-11-22T05:09:10.402Z,8.20
2022-11-22T05:11:56.693Z,8.20
2022-11-22T05:14:44.419Z,8.20
2022-11-22T05:17:31.111Z,8.30
2022-11-22T05:20:17.658Z,8.20
2022-11-22T05:23:22.319Z,8.20
2022-11-22T05:26:10.993Z,8.30
2022-11-22T05:28:57.995Z,8.20
2022-11-22T05:31:50.991Z,8.20
2022-11-22T05:34:38.222Z,8.20
2022-11-22T05:37:24.672Z,8.20
2022-11-22T05:40:12.664Z,8.30
2022-11-22T05:42:59.431Z,8.30
2022-11-22T05:45:45.799Z,8.20
2022-11-22T05:48:33.674Z,8.30
2022-11-22T05:51:22.988Z,8.30
2022-11-22T05:54:09.405Z,8.30
2022-11-22T05:56:56.007Z,8.20
2022-11-22T05:59:44.369Z,8.20
2022-11-22T06:02:32.550Z,8.20
2022-11-22T06:05:20.619Z,8.20
2022-11-22T06:08:07.105Z,8.20
2022-11-22T06:10:54.022Z,8.20
2022-11-22T06:13:44.030Z,8.20
2022-11-22T06:16:30.783Z,8.10
2022-11-22T06:19:17.392Z,8.00
2022-11-22T06:22:06.086Z,7.90
2022-11-22T06:24:52.779Z,7.80
2022-11-22T06:27:39.346Z,7.90
2022-11-22T06:30:26.023Z,7.80
2022-11-22T06:33:12.615Z,7.80
2022-11-22T06:36:03.979Z,7.80
2022-11-22T06:38:52.473Z,7.80
2022-11-22T06:41:39.703Z,7.70
2022-11-22T06:44:26.160Z,7.70
2022-11-22T06:47:12.513Z,7.80
2022-11-22T06:49:58.956Z,7.80
2022-11-22T06:52:51.266Z,7.80
2022-11-22T06:55:58.313Z,7.90
2022-11-22T06:58:46.173Z,7.90
2022-11-22T07:01:33.326Z,7.90
2022-11-22T07:04:20.427Z,7.90
2022-11-22T07:07:06.917Z,8.00
2022-11-22T07:09:56.547Z,8.00
2022-11-22T07:12:44.961Z,8.10
2022-11-22T07:15:31.619Z,8.10
2022-11-22T07:18:17.964Z,8.10
2022-11-22T07:21:12.138Z,8.10
2022-11-22T07:23:59.742Z,8.20
2022-11-22T07:26:46.177Z,8.10
2022-11-22T07:29:34.006Z,8.10
2022-11-22T07:32:20.469Z,8.10
2022-11-22T07:35:07.490Z,8.10
2022-11-22T07:37:53.867Z,8.20
2022-11-22T07:40:40.298Z,8.20
2022-11-22T07:43:26.820Z,8.20
2022-11-22T07:46:21.456Z,8.20
2022-11-22T07:49:08.083Z,8.30
2022-11-22T07:51:54.526Z,8.30
2022-11-22T07:54:40.810Z,8.40
2022-11-22T07:57:27.251Z,8.40
2022-11-22T08:00:15.345Z,8.40
2022-11-22T08:03:03.291Z,8.40
2022-11-22T08:05:49.738Z,8.30
2022-11-22T08:08:36.891Z,8.30
2022-11-22T08:11:23.610Z,8.30
2022-11-22T08:14:09.946Z,8.40
2022-11-22T08:16:56.603Z,8.40
2022-11-22T08:19:44.564Z,8.30
2022-11-22T08:22:30.855Z,8.40
2022-11-22T08:25:17.575Z,8.40
2022-11-22T08:28:04.292Z,8.40
2022-11-22T08:30:50.805Z,8.40
2022-11-22T08:33:38.016Z,8.40
2022-11-22T08:36:26.306Z,8.50
2022-11-22T08:39:12.591Z,8.50
2022-11-22T08:41:58.995Z,8.60
2022-11-22T08:44:45.483Z,8.70
2022-11-22T08:47:32.210Z,8.70
2022-11-22T08:50:19.348Z,8.70
2022-11-22T08:53:07.247Z,8.70
2022-11-22T08:55:54.052Z,8.70
2022-11-22T08:58:40.752Z,8.70
2022-11-22T09:01:27.829Z,8.70
2022-11-22T09:04:14.820Z,8.80
2022-11-22T09:10:09.940Z,9.00
2022-11-22T09:12:56.475Z,9.10
2022-11-22T09:15:42.864Z,9.20
2022-11-22T09:18:29.290Z,9.30
2022-11-22T09:21:18.170Z,9.30
2022-11-22T09:24:05.002Z,9.20
2022-11-22T09:26:52.767Z,9.20
2022-11-22T09:29:40.043Z,9.30
2022-11-22T09:32:32.175Z,9.30
2022-11-22T09:35:20.675Z,9.30
2022-11-22T09:38:08.431Z,9.50
2022-11-22T09:40:55.418Z,9.40
2022-11-22T09:43:52.735Z,9.40
2022-11-22T09:46:46.875Z,9.60
2022-11-22T09:49:48.021Z,9.60
2022-11-22T09:52:41.246Z,9.60
2022-11-22T09:55:34.414Z,9.40
2022-11-22T09:58:29.021Z,9.50
2022-11-22T10:01:22.039Z,9.40
2022-11-22T10:04:14.619Z,9.50
2022-11-22T10:07:04.475Z,9.50
2022-11-22T10:09:57.173Z,9.40
2022-11-22T10:12:50.212Z,9.40
2022-11-22T10:15:45.915Z,9.40
2022-11-22T10:18:40.404Z,9.40
2022-11-22T10:21:27.723Z,9.50
2022-11-22T10:24:16.855Z,9.50
2022-11-22T10:27:03.691Z,9.40
2022-11-22T10:29:57.234Z,9.30
2022-11-22T10:32:56.307Z,9.30
2022-11-22T10:35:58.791Z,9.20
2022-11-22T10:39:22.150Z,9.20
2022-11-22T10:42:23.362Z,9.40
2022-11-22T10:45:17.737Z,9.40
2022-11-22T10:48:17.691Z,9.50
2022-11-22T10:51:14.127Z,9.60
2022-11-22T10:54:11.672Z,9.60
2022-11-22T10:57:08.239Z,9.80
2022-11-22T11:00:04.148Z,9.80
2022-11-22T11:03:20.774Z,9.90
2022-11-22T11:06:24.334Z,10.10
2022-11-22T11:10:08.953Z,10.00
2022-11-22T11:12:34.381Z,10.00
2022-11-22T11:15:24.219Z,10.00
2022-11-22T11:18:17.989Z,10.00
2022-11-22T11:21:06.754Z,10.00
2022-11-22T11:23:54.930Z,10.10
2022-11-22T11:26:43.051Z,10.20
2022-11-22T11:29:42.406Z,10.10
2022-11-22T11:32:29.246Z,10.10
2022-11-22T11:35:16.638Z,10.10
2022-11-22T11:38:03.051Z,10.10
2022-11-22T11:40:51.056Z,10.00
2022-11-22T11:43:44.013Z,10.10
2022-11-22T11:46:44.590Z,10.10
2022-11-22T11:49:33.265Z,10.10
2022-11-22T11:52:23.037Z,10.20
2022-11-22T11:55:17.950Z,10.10
2022-11-22T11:58:17.809Z,10.10
2022-11-22T12:01:11.880Z,10.10
2022-11-22T12:04:01.309Z,10.20
2022-11-22T12:07:03.131Z,10.30
2022-11-22T12:09:52.863Z,10.30
2022-11-22T12:12:46.433Z,10.40
2022-11-22T12:15:56.136Z,10.40
2022-11-22T12:18:49.590Z,10.40
2022-11-22T12:21:44.665Z,10.50
2022-11-22T12:25:16.907Z,10.60
2022-11-22T12:27:44.859Z,10.40
2022-11-22T12:30:33.578Z,10.50
2022-11-22T12:33:25.759Z,10.50
2022-11-22T12:36:17.115Z,10.40
2022-11-22T12:39:05.257Z,10.50
2022-11-22T12:41:56.945Z,10.30
2022-11-22T12:44:48.717Z,10.30
2022-11-22T12:47:40.219Z,10.40
2022-11-22T12:50:31.869Z,10.40
2022-11-22T12:53:23.865Z,10.40
2022-11-22T12:56:22.600Z,10.30
2022-11-22T12:59:16.847Z,10.40
2022-11-22T13:02:12.411Z,10.40
2022-11-22T13:05:05.421Z,10.40
2022-11-22T13:08:00.122Z,10.40
2022-11-22T13:10:52.430Z,10.40
2022-11-22T13:13:42.267Z,10.50
2022-11-22T13:16:29.136Z,10.60
2022-11-22T13:19:17.937Z,10.70
2022-11-22T13:22:16.335Z,10.60
2022-11-22T13:25:24.642Z,10.60
2022-11-22T13:28:15.239Z,10.50
2022-11-22T13:31:08.563Z,10.60
2022-11-22T13:33:57.917Z,10.60
2022-11-22T13:36:44.886Z,10.60
2022-11-22T13:39:31.629Z,10.60
2022-11-22T13:42:21.300Z,10.60
2022-11-22T13:45:22.992Z,10.70
2022-11-22T13:48:11.311Z,10.70
2022-11-22T13:51:01.475Z,10.80
2022-11-22T13:53:49.614Z,10.80
2022-11-22T13:56:58.001Z,10.80
2022-11-22T13:59:45.783Z,10.80
2022-11-22T14:02:32.555Z,10.80
2022-11-22T14:05:20.543Z,10.80
2022-11-22T14:08:27.195Z,10.70
2022-11-22T14:11:41.099Z,10.70
2022-11-22T14:14:35.343Z,10.70
2022-11-22T14:17:26.043Z,10.70
2022-11-22T14:20:29.856Z,10.60
2022-11-22T14:23:27.111Z,10.50
2022-11-22T14:26:26.482Z,10.60
2022-11-22T14:29:40.781Z,10.60
2022-11-22T14:32:42.749Z,10.60
2022-11-22T14:35:38.131Z,10.60
2022-11-22T14:38:35.375Z,10.50
2022-11-22T14:41:45.140Z,10.30
2022-11-22T14:44:36.335Z,10.20
2022-11-22T14:47:22.837Z,10.30
2022-11-22T14:50:17.380Z,10.20
2022-11-22T14:53:16.475Z,10.10
2022-11-22T14:56:12.843Z,10.20
2022-11-22T14:59:10.826Z,10.20
2022-11-22T15:02:20.233Z,10.20
2022-11-22T15:09:14.904Z,10.20
2022-11-22T15:09:18.391Z,10.10
2022-11-22T15:12:02.387Z,10.10
2022-11-22T15:59:48.481Z,9.50
2022-11-22T16:02:37.746Z,9.60
2022-11-22T16:06:10.133Z,9.60
2022-11-22T16:08:38.161Z,9.60
2022-11-22T16:11:29.380Z,9.50
2022-11-22T16:14:41.041Z,9.40
2022-11-22T16:17:30.661Z,9.30
2022-11-22T16:20:29.896Z,9.30
2022-11-22T16:23:24.612Z,9.30
2022-11-22T16:26:21.813Z,9.30
2022-11-22T16:29:32.103Z,9.30
2022-11-22T16:32:19.774Z,9.30
2022-11-22T16:35:28.682Z,9.20
2022-11-22T16:38:15.946Z,9.10
2022-11-22T16:41:02.888Z,9.10
2022-11-22T16:43:53.826Z,9.00
2022-11-22T16:46:40.891Z,9.00
2022-11-22T16:49:27.362Z,9.00
2022-11-22T16:52:15.192Z,9.00
2022-11-22T16:55:01.960Z,8.90
2022-11-22T16:57:48.523Z,8.80
2022-11-22T17:00:37.769Z,8.60
2022-11-22T17:03:26.971Z,8.50
2022-11-22T17:06:18.360Z,8.50
2022-11-22T17:09:04.776Z,8.40
2022-11-22T17:11:51.499Z,8.50
2022-11-22T17:14:38.235Z,8.50
2022-11-22T17:17:25.903Z,8.40
2022-11-22T17:20:12.814Z,8.40
2022-11-22T17:22:59.370Z,8.40
2022-11-22T17:25:45.750Z,8.40
2022-11-22T17:28:32.802Z,8.40
2022-11-22T17:31:20.949Z,8.40
2022-11-22T17:34:10.276Z,8.40
2022-11-22T17:36:56.698Z,8.40
2022-11-22T17:39:43.018Z,8.30
2022-11-22T17:42:29.530Z,8.40
2022-11-22T17:45:16.014Z,8.40
2022-11-22T17:48:02.787Z,8.50
2022-11-22T17:50:50.743Z,8.60
2022-11-22T17:53:37.526Z,8.50
2022-11-22T17:56:24.021Z,8.50
2022-11-22T17:59:10.730Z,8.50
2022-11-22T18:01:58.583Z,8.50
2022-11-22T18:04:45.585Z,8.50
2022-11-22T18:07:33.561Z,8.50
2022-11-22T18:10:20.125Z,8.50
2022-11-22T18:13:20.912Z,8.50
2022-11-22T18:16:12.043Z,8.50
2022-11-22T18:18:59.062Z,8.40
2022-11-22T18:21:45.992Z,8.40
2022-11-22T18:24:33.778Z,8.40
2022-11-22T18:27:20.356Z,8.30
2022-11-22T18:30:07.897Z,8.30
2022-11-22T18:32:54.486Z,8.20
2022-11-22T18:35:41.127Z,8.10
2022-11-22T18:38:27.522Z,8.20
2022-11-22T18:41:16.614Z,8.20
2022-11-22T18:44:07.010Z,8.20
2022-11-22T18:46:55.095Z,8.20
2022-11-22T18:49:41.551Z,8.20
2022-11-22T18:52:27.842Z,8.20
2022-11-22T18:55:17.558Z,8.40
2022-11-22T18:58:05.551Z,8.40
2022-11-22T19:00:53.714Z,8.30
2022-11-22T19:03:40.559Z,8.30
2022-11-22T19:06:27.238Z,8.20
2022-11-22T19:09:13.728Z,8.20
2022-11-22T19:12:00.091Z,8.30
2022-11-22T19:14:47.880Z,8.20
2022-11-22T19:17:34.549Z,8.20
2022-11-22T19:20:47.452Z,8.20
2022-11-22T19:23:27.386Z,8.20
2022-11-22T19:26:15.302Z,8.20
2022-11-22T19:29:02.553Z,8.20
2022-11-22T19:31:50.528Z,8.10
2022-11-22T19:34:37.329Z,8.10
2022-11-22T19:37:23.863Z,8.10
2022-11-22T19:40:11.093Z,8.10
2022-11-22T19:42:57.542Z,8.10
2022-11-22T19:45:44.200Z,8.10
2022-11-22T19:48:32.696Z,8.10
2022-11-22T19:51:19.505Z,8.10
2022-11-22T19:54:06.834Z,8.00
2022-11-22T19:56:53.350Z,8.10
2022-11-22T19:59:40.178Z,8.20
2022-11-22T20:02:27.031Z,8.20
2022-11-22T20:05:15.012Z,8.30
2022-11-22T20:08:01.634Z,8.20
2022-11-22T20:10:47.995Z,8.20
2022-11-22T20:13:36.535Z,8.20
2022-11-22T20:16:24.639Z,8.20
2022-11-22T20:19:12.380Z,8.20
2022-11-22T20:22:00.186Z,8.20
2022-11-22T20:24:46.805Z,8.20
2022-11-22T20:27:33.626Z,8.10
2022-11-22T20:30:20.055Z,8.10
2022-11-22T20:33:06.692Z,8.10
2022-11-22T20:35:53.094Z,8.10
2022-11-22T20:38:43.348Z,8.20
2022-11-22T20:41:31.162Z,8.20
2022-11-22T20:44:20.823Z,8.20
2022-11-22T20:47:11.354Z,8.10
2022-11-22T20:49:57.742Z,8.00
2022-11-22T20:52:44.143Z,7.90
2022-11-22T20:55:32.083Z,7.80
2022-11-22T20:58:19.235Z,7.70
2022-11-22T21:01:07.250Z,7.60
2022-11-22T21:03:54.727Z,7.50
2022-11-22T21:06:41.451Z,7.20
2022-11-22T21:09:27.729Z,7.10
2022-11-22T21:12:15.569Z,7.00
2022-11-22T21:15:02.626Z,6.80
2022-11-22T21:18:09.501Z,6.70
2022-11-22T21:20:55.819Z,6.70
2022-11-22T21:23:44.538Z,6.80
2022-11-22T21:26:31.914Z,6.80
2022-11-22T21:29:20.247Z,6.80
2022-11-22T21:32:07.036Z,6.70
2022-11-22T21:34:53.807Z,6.90
2022-11-22T21:37:41.400Z,6.90
2022-11-22T21:40:27.966Z,6.80
2022-11-22T21:43:14.424Z,7.00
2022-11-22T21:46:02.245Z,7.10
2022-11-22T21:48:50.083Z,7.20
2022-11-22T21:51:36.510Z,7.10
2022-11-22T21:54:22.921Z,7.20
2022-11-22T21:57:09.853Z,7.30
2022-11-22T21:59:56.574Z,7.30
2022-11-22T22:02:44.315Z,7.20
2022-11-22T22:05:30.668Z,7.20
2022-11-22T22:08:17.519Z,7.20
2022-11-22T22:11:05.270Z,7.30
2022-11-22T22:13:53.825Z,7.20
2022-11-22T22:16:40.421Z,7.20
2022-11-22T22:19:28.133Z,7.20
2022-11-22T22:22:14.622Z,7.30
2022-11-22T22:25:00.995Z,7.20
2022-11-22T22:27:47.445Z,7.20
2022-11-22T22:30:34.022Z,7.20
2022-11-22T22:33:20.384Z,6.90
2022-11-22T22:36:09.926Z,6.70
2022-11-22T22:38:56.485Z,6.40
2022-11-22T22:41:42.947Z,6.30
2022-11-22T22:44:29.537Z,6.30
2022-11-22T22:47:15.823Z,6.10
2022-11-22T22:50:02.499Z,6.00
2022-11-22T22:52:50.243Z,5.90
2022-11-22T22:55:36.644Z,5.80
2022-11-22T22:58:23.134Z,5.70
2022-11-22T23:01:11.639Z,5.70
2022-11-22T23:03:59.905Z,5.80
2022-11-22T23:06:46.410Z,5.60
2022-11-22T23:09:34.403Z,5.40
2022-11-22T23:12:21.138Z,5.40
2022-11-22T23:15:08.607Z,5.60
2022-11-22T23:17:55.154Z,5.70
2022-11-22T23:20:41.449Z,5.80
2022-11-22T23:23:28.311Z,5.90
2022-11-22T23:26:16.189Z,6.00
2022-11-22T23:29:02.899Z,6.10
2022-11-22T23:31:49.626Z,6.20
2022-11-22T23:34:36.013Z,6.10
2022-11-22T23:37:22.402Z,6.20
2022-11-22T23:40:09.897Z,6.20
2022-11-22T23:42:59.135Z,6.20
2022-11-22T23:45:47.218Z,6.30
2022-11-22T23:48:33.584Z,6.30
2022-11-22T23:51:20.081Z,6.30
2022-11-22T23:54:08.854Z,6.30
2022-11-22T23:56:55.559Z,6.40
2022-11-22T23:59:43.606Z,6.40
